Time;durP1;ratioP1;P1;durP2;ratioP2;P2;SDS_P1;SDS_P2;PMS_P1;PMS_P2;Temp;Humidity;BMP_temperature;BMP_pressure;BME280_temperature;BME280_humidity;BME280_pressure;Samples;Min_cycle;Max_cycle;Signal;HPM_P1;HPM_P2
2022/12/12 00:00:26;;;;;;;15.55;10.32;;;0.80;99.90;;;;;;4852359;29;20150;-63
2022/12/12 00:02:53;;;;;;;14.95;8.95;;;0.80;99.90;;;;;;4844099;29;20151;-62
2022/12/12 00:05:20;;;;;;;15.40;9.75;;;0.80;99.90;;;;;;4844171;29;20049;-62
2022/12/12 00:07:47;;;;;;;13.52;9.15;;;0.80;99.90;;;;;;4848674;29;20037;-63
2022/12/12 00:10:14;;;;;;;12.68;8.70;;;0.80;99.90;;;;;;4862458;29;20046;-63
2022/12/12 00:12:40;;;;;;;19.00;10.73;;;0.80;99.90;;;;;;4860369;29;20069;-62
2022/12/12 00:15:07;;;;;;;19.40;10.70;;;0.80;99.90;;;;;;4843727;29;20073;-63
2022/12/12 00:17:34;;;;;;;22.00;10.90;;;0.90;99.90;;;;;;4843756;29;20054;-63
2022/12/12 00:20:01;;;;;;;12.88;9.40;;;0.80;99.90;;;;;;4843891;29;20053;-63
2022/12/12 00:22:27;;;;;;;21.38;10.45;;;0.80;99.90;;;;;;4847507;29;20136;-63
2022/12/12 00:24:54;;;;;;;13.52;9.30;;;0.90;99.90;;;;;;4853656;29;20053;-63
2022/12/12 00:27:21;;;;;;;10.43;8.48;;;0.90;99.90;;;;;;4844577;29;20046;-63
2022/12/12 00:29:47;;;;;;;10.25;8.20;;;0.90;99.90;;;;;;4843728;29;20057;-63
2022/12/12 00:32:14;;;;;;;11.10;8.23;;;0.90;99.90;;;;;;4847533;29;20449;-62
2022/12/12 00:34:41;;;;;;;20.33;9.05;;;0.90;99.90;;;;;;4861964;29;20085;-64
2022/12/12 00:37:08;;;;;;;14.80;8.80;;;0.90;99.90;;;;;;4852799;29;20081;-64
2022/12/12 00:39:35;;;;;;;10.77;7.80;;;0.90;99.90;;;;;;4854839;29;20164;-63
2022/12/12 00:42:01;;;;;;;9.60;7.43;;;1.00;99.90;;;;;;4845131;29;20097;-64
2022/12/12 00:44:28;;;;;;;9.75;7.38;;;1.00;99.90;;;;;;4848282;29;20111;-64
2022/12/12 00:46:55;;;;;;;12.60;7.75;;;1.00;99.90;;;;;;4841946;29;20054;-63
2022/12/12 00:49:21;;;;;;;11.40;7.55;;;1.00;99.90;;;;;;4844384;29;20069;-64
2022/12/12 00:51:48;;;;;;;11.13;7.63;;;1.00;99.90;;;;;;4856025;29;20069;-64
2022/12/12 00:54:15;;;;;;;9.48;7.05;;;1.00;99.90;;;;;;4845329;29;20498;-63
2022/12/12 00:56:41;;;;;;;9.85;7.10;;;1.00;99.90;;;;;;4854164;29;20094;-64
2022/12/12 00:59:08;;;;;;;8.82;6.88;;;1.00;99.90;;;;;;4844889;29;20097;-64
2022/12/12 01:01:35;;;;;;;9.93;7.25;;;1.00;99.90;;;;;;4843402;29;20479;-64
2022/12/12 01:04:03;;;;;;;8.40;6.53;;;1.00;99.90;;;;;;4846273;29;20117;-64
2022/12/12 01:06:30;;;;;;;8.40;6.57;;;1.00;99.90;;;;;;4843872;29;20077;-64
2022/12/12 01:08:57;;;;;;;8.68;6.55;;;1.00;99.90;;;;;;4849780;29;20057;-64
2022/12/12 01:11:24;;;;;;;8.55;6.63;;;1.00;99.90;;;;;;4848980;29;20042;-65
2022/12/12 01:13:50;;;;;;;9.38;7.10;;;1.00;99.90;;;;;;4861094;29;20085;-64
2022/12/12 01:16:17;;;;;;;9.77;7.55;;;1.00;99.90;;;;;;4852191;29;20053;-64
2022/12/12 01:18:44;;;;;;;10.35;7.35;;;1.00;99.90;;;;;;4860984;29;20041;-63
2022/12/12 01:21:10;;;;;;;11.80;7.85;;;1.00;99.90;;;;;;4846602;29;20114;-64
2022/12/12 01:23:38;;;;;;;9.55;7.57;;;1.00;99.90;;;;;;4844161;29;20041;-64
2022/12/12 01:26:04;;;;;;;10.57;7.65;;;1.00;99.90;;;;;;4843939;29;20486;-64
2022/12/12 01:28:31;;;;;;;10.07;7.50;;;1.10;99.90;;;;;;4848387;29;20120;-64
2022/12/12 01:30:58;;;;;;;10.48;7.88;;;1.10;99.90;;;;;;4857254;29;20038;-64
2022/12/12 01:33:24;;;;;;;9.38;7.07;;;1.10;99.90;;;;;;4860140;29;20050;-63
2022/12/12 01:35:51;;;;;;;10.30;8.25;;;1.10;99.90;;;;;;4847134;29;20054;-64
2022/12/12 01:38:18;;;;;;;11.88;8.68;;;1.00;99.90;;;;;;4852194;29;20054;-64
2022/12/12 01:40:45;;;;;;;13.40;8.95;;;1.00;99.90;;;;;;4846747;29;20133;-64
2022/12/12 01:43:11;;;;;;;13.43;9.15;;;1.00;99.90;;;;;;4845639;29;20065;-64
2022/12/12 01:45:39;;;;;;;11.38;8.70;;;1.00;99.90;;;;;;4842214;29;20046;-62
2022/12/12 01:48:05;;;;;;;12.45;9.73;;;1.00;99.90;;;;;;4843012;29;20423;-64
2022/12/12 01:50:32;;;;;;;14.57;10.10;;;1.00;99.90;;;;;;4853090;29;20057;-63
2022/12/12 01:52:59;;;;;;;12.38;10.05;;;1.00;99.90;;;;;;4843779;29;20052;-63
2022/12/12 01:55:26;;;;;;;12.57;9.68;;;1.00;99.90;;;;;;4849769;29;20065;-63
2022/12/12 01:57:52;;;;;;;14.18;10.57;;;1.00;99.90;;;;;;4859048;29;20124;-63
2022/12/12 02:00:19;;;;;;;11.60;9.23;;;1.00;99.90;;;;;;4844195;29;20046;-64
2022/12/12 02:02:46;;;;;;;13.55;10.43;;;1.00;99.90;;;;;;4852535;29;20049;-64
2022/12/12 02:05:13;;;;;;;12.45;9.70;;;1.00;99.90;;;;;;4848752;29;20078;-64
2022/12/12 02:07:40;;;;;;;12.48;10.13;;;1.00;99.90;;;;;;4841605;29;20478;-63
2022/12/12 02:10:07;;;;;;;14.95;10.45;;;1.00;99.90;;;;;;4854876;29;20053;-63
2022/12/12 02:12:34;;;;;;;13.27;10.73;;;1.00;99.90;;;;;;4846964;29;20430;-64
2022/12/12 02:15:00;;;;;;;15.57;10.68;;;1.00;99.90;;;;;;4849856;29;20038;-64
2022/12/12 02:17:27;;;;;;;14.20;10.27;;;1.00;99.90;;;;;;4855396;29;20398;-63
2022/12/12 02:19:54;;;;;;;13.55;10.70;;;1.00;99.90;;;;;;4859556;29;20049;-64
2022/12/12 02:22:20;;;;;;;15.05;10.80;;;1.00;99.90;;;;;;4841849;29;20057;-64
2022/12/12 02:24:47;;;;;;;15.82;11.07;;;1.00;99.90;;;;;;4852327;29;20037;-64
2022/12/12 02:27:14;;;;;;;12.63;10.05;;;1.00;99.90;;;;;;4842174;29;20046;-63
2022/12/12 02:29:41;;;;;;;15.20;11.20;;;1.00;99.90;;;;;;4850425;29;20502;-63
2022/12/12 02:32:07;;;;;;;14.73;10.32;;;1.00;99.90;;;;;;4844639;29;20474;-64
2022/12/12 02:34:34;;;;;;;13.55;10.55;;;1.00;99.90;;;;;;4842017;29;20136;-63
2022/12/12 02:37:01;;;;;;;14.93;9.90;;;1.00;99.90;;;;;;4842223;29;20136;-64
2022/12/12 02:39:27;;;;;;;14.30;10.43;;;1.00;99.90;;;;;;4859148;29;20056;-64
2022/12/12 02:41:54;;;;;;;13.73;10.48;;;1.00;99.90;;;;;;4860193;29;20046;-64
2022/12/12 02:44:21;;;;;;;12.70;10.43;;;1.00;99.90;;;;;;4841648;29;20046;-64
2022/12/12 02:46:48;;;;;;;15.05;10.43;;;1.00;99.90;;;;;;4847913;29;20086;-63
2022/12/12 02:49:14;;;;;;;14.45;11.02;;;1.00;99.90;;;;;;4857855;29;20549;-64
2022/12/12 02:51:41;;;;;;;17.15;11.10;;;1.00;99.90;;;;;;4842958;29;20038;-64
2022/12/12 02:54:08;;;;;;;13.82;10.43;;;1.00;99.90;;;;;;4842073;29;20054;-63
2022/12/12 02:56:35;;;;;;;14.52;10.05;;;1.00;99.90;;;;;;4858534;29;20049;-63
2022/12/12 02:59:02;;;;;;;13.48;10.25;;;1.00;99.90;;;;;;4852941;29;20049;-64
2022/12/12 03:01:28;;;;;;;15.40;10.48;;;1.00;99.90;;;;;;4854854;29;20050;-64
2022/12/12 03:09:36;;;;;;;12.95;10.02;;;1.00;99.90;;;;;;4825582;29;20061;-63
2022/12/12 03:12:03;;;;;;;12.98;10.20;;;1.00;99.90;;;;;;4859191;29;20136;-63
2022/12/12 03:14:30;;;;;;;15.05;11.02;;;1.00;99.90;;;;;;4851008;29;20053;-64
2022/12/12 03:16:57;;;;;;;14.63;10.18;;;1.00;99.90;;;;;;4850200;29;20056;-64
2022/12/12 03:19:24;;;;;;;14.52;10.43;;;1.00;99.90;;;;;;4857283;29;20046;-63
2022/12/12 03:21:51;;;;;;;14.43;10.80;;;1.10;99.90;;;;;;4858484;29;20432;-64
2022/12/12 03:24:17;;;;;;;13.02;10.10;;;1.10;99.90;;;;;;4846445;29;20117;-64
2022/12/12 03:26:44;;;;;;;13.45;10.52;;;1.10;99.90;;;;;;4863270;29;20049;-64
2022/12/12 03:29:11;;;;;;;15.15;11.05;;;1.10;99.90;;;;;;4848196;29;20525;-64
2022/12/12 03:31:37;;;;;;;15.32;10.95;;;1.10;99.90;;;;;;4846230;29;20046;-62
2022/12/12 03:34:04;;;;;;;14.70;11.00;;;1.10;99.90;;;;;;4860137;29;20692;-63
2022/12/12 03:36:31;;;;;;;15.60;11.40;;;1.10;99.90;;;;;;4859452;29;20057;-62
2022/12/12 03:38:58;;;;;;;15.48;12.10;;;1.10;99.90;;;;;;4849206;29;20053;-63
2022/12/12 03:41:25;;;;;;;14.75;11.63;;;1.10;99.90;;;;;;4861482;29;20409;-63
2022/12/12 03:43:51;;;;;;;15.18;11.15;;;1.10;99.90;;;;;;4847981;29;20126;-63
2022/12/12 03:46:19;;;;;;;15.30;11.02;;;1.10;99.90;;;;;;4851736;29;20034;-63
2022/12/12 03:48:45;;;;;;;15.43;11.95;;;1.10;99.90;;;;;;4855344;29;20063;-63
2022/12/12 03:51:12;;;;;;;17.38;12.10;;;1.10;99.90;;;;;;4857495;29;20413;-63
2022/12/12 03:53:39;;;;;;;19.00;13.00;;;1.10;99.90;;;;;;4844695;29;20483;-63
2022/12/12 03:56:05;;;;;;;18.05;12.15;;;1.10;99.90;;;;;;4859511;29;20053;-64
2022/12/12 03:58:32;;;;;;;17.25;12.50;;;1.10;99.90;;;;;;4853079;29;20058;-64
2022/12/12 04:00:59;;;;;;;17.42;12.57;;;1.10;99.90;;;;;;4849863;29;20129;-63
2022/12/12 04:03:26;;;;;;;16.33;12.45;;;1.10;99.90;;;;;;4849037;29;20044;-64
2022/12/12 04:08:38;;;;;;;17.27;12.23;;;1.10;99.90;;;;;;4856674;29;20106;-63
2022/12/12 04:13:50;;;;;;;19.00;12.60;;;1.10;99.90;;;;;;4862886;29;20052;-64
2022/12/12 04:16:17;;;;;;;19.38;13.43;;;1.10;99.90;;;;;;4855690;29;20125;-64
2022/12/12 04:18:44;;;;;;;20.88;13.93;;;1.10;99.90;;;;;;4852310;29;20117;-64
2022/12/12 04:23:56;;;;;;;19.73;13.77;;;1.20;99.90;;;;;;4859110;29;20094;-63
2022/12/12 04:26:38;;;;;;;20.40;13.50;;;1.20;99.90;;;;;;4862556;29;20102;-64
2022/12/12 04:29:04;;;;;;;18.48;12.93;;;1.20;99.90;;;;;;4862913;29;20382;-64
2022/12/12 04:31:31;;;;;;;20.38;13.93;;;1.20;99.90;;;;;;4856012;29;20050;-63
2022/12/12 04:33:58;;;;;;;20.27;14.30;;;1.20;99.90;;;;;;4857491;29;20057;-64
2022/12/12 04:36:25;;;;;;;19.70;14.00;;;1.20;99.90;;;;;;4849730;29;20451;-64
2022/12/12 04:38:51;;;;;;;19.17;13.98;;;1.20;99.90;;;;;;4856258;29;20055;-63
2022/12/12 04:41:18;;;;;;;20.48;14.77;;;1.20;99.90;;;;;;4862539;29;20137;-64
2022/12/12 04:43:46;;;;;;;21.05;14.52;;;1.20;99.90;;;;;;4845667;29;20508;-63
2022/12/12 04:46:13;;;;;;;18.88;14.07;;;1.20;99.90;;;;;;4846013;29;20046;-63
2022/12/12 04:48:40;;;;;;;20.42;14.55;;;1.20;99.90;;;;;;4858972;29;20141;-63
2022/12/12 04:51:09;;;;;;;21.33;15.57;;;1.30;99.90;;;;;;4857995;29;20145;-63
2022/12/12 04:53:36;;;;;;;20.48;15.20;;;1.20;99.90;;;;;;4843484;29;20042;-63
2022/12/12 04:56:03;;;;;;;21.25;16.30;;;1.20;99.90;;;;;;4856358;29;20584;-63
2022/12/12 04:58:29;;;;;;;19.10;14.35;;;1.30;99.90;;;;;;4862152;29;20090;-63
2022/12/12 05:00:56;;;;;;;19.50;14.18;;;1.20;99.90;;;;;;4861590;29;20041;-63
2022/12/12 05:03:23;;;;;;;20.48;14.73;;;1.20;99.90;;;;;;4843755;29;20056;-63
2022/12/12 05:05:50;;;;;;;19.58;14.35;;;1.20;99.90;;;;;;4846909;29;20049;-63
2022/12/12 05:08:16;;;;;;;21.88;15.05;;;1.20;99.90;;;;;;4857280;29;20482;-63
2022/12/12 05:10:43;;;;;;;20.20;15.35;;;1.20;99.90;;;;;;4857474;29;20065;-63
2022/12/12 05:13:10;;;;;;;21.65;14.60;;;1.20;99.90;;;;;;4851364;29;20074;-63
2022/12/12 05:15:37;;;;;;;19.90;14.70;;;1.20;99.90;;;;;;4850647;29;20060;-64
2022/12/12 05:18:10;;;;;;;21.88;15.13;;;1.20;99.90;;;;;;4853562;29;20124;-63
2022/12/12 05:20:37;;;;;;;20.80;15.60;;;1.30;99.90;;;;;;4860262;29;20053;-63
2022/12/12 05:23:03;;;;;;;21.20;15.15;;;1.20;99.90;;;;;;4861893;29;20446;-63
2022/12/12 05:25:30;;;;;;;21.70;14.15;;;1.20;99.90;;;;;;4859436;29;20094;-63
2022/12/12 05:27:57;;;;;;;18.17;13.77;;;1.30;99.90;;;;;;4845217;29;20103;-63
2022/12/12 05:30:24;;;;;;;18.55;13.85;;;1.20;99.90;;;;;;4842959;29;20069;-63
2022/12/12 05:32:51;;;;;;;21.25;15.00;;;1.20;99.90;;;;;;4847417;29;20050;-63
2022/12/12 05:35:17;;;;;;;20.85;15.75;;;1.20;99.90;;;;;;4852374;29;20084;-63
2022/12/12 05:37:44;;;;;;;19.95;13.48;;;1.20;99.90;;;;;;4845432;29;20088;-63
2022/12/12 05:40:17;;;;;;;21.13;14.70;;;1.20;99.90;;;;;;4854876;29;20042;-63
2022/12/12 05:42:44;;;;;;;20.98;15.15;;;1.20;99.90;;;;;;4856374;29;20128;-64
2022/12/12 05:45:10;;;;;;;22.83;15.82;;;1.20;99.90;;;;;;4861374;29;20398;-64
2022/12/12 05:47:38;;;;;;;20.80;15.13;;;1.20;99.90;;;;;;4858523;29;20050;-63
2022/12/12 05:50:04;;;;;;;21.00;15.40;;;1.20;99.90;;;;;;4848665;29;20116;-63
2022/12/12 05:52:31;;;;;;;21.00;15.73;;;1.20;99.90;;;;;;4844437;29;20042;-63
2022/12/12 05:54:58;;;;;;;21.55;15.63;;;1.20;99.90;;;;;;4851340;29;20045;-63
2022/12/12 05:57:25;;;;;;;19.73;14.70;;;1.20;99.90;;;;;;4849098;29;20489;-64
2022/12/12 05:59:51;;;;;;;20.63;14.98;;;1.20;99.90;;;;;;4854175;29;20053;-64
2022/12/12 06:02:18;;;;;;;21.92;16.73;;;1.20;99.90;;;;;;4851725;29;20049;-62
2022/12/12 06:04:46;;;;;;;23.08;15.38;;;1.20;99.90;;;;;;4850244;29;20079;-64
2022/12/12 06:07:13;;;;;;;22.98;16.95;;;1.20;99.90;;;;;;4848508;29;20459;-62
2022/12/12 06:09:39;;;;;;;18.58;14.55;;;1.20;99.90;;;;;;4842272;29;20056;-62
2022/12/12 06:12:06;;;;;;;20.95;15.15;;;1.20;99.90;;;;;;4847285;29;20042;-64
2022/12/12 06:14:33;;;;;;;21.98;15.85;;;1.20;99.90;;;;;;4842100;29;20088;-63
2022/12/12 06:17:00;;;;;;;21.52;15.95;;;1.20;99.90;;;;;;4852738;29;20093;-64
2022/12/12 06:19:26;;;;;;;20.25;15.63;;;1.30;99.90;;;;;;4848705;29;20052;-63
2022/12/12 06:21:53;;;;;;;19.90;15.07;;;1.30;99.90;;;;;;4853152;29;20046;-63
2022/12/12 06:24:20;;;;;;;19.23;14.63;;;1.30;99.90;;;;;;4842302;29;20421;-63
2022/12/12 06:26:47;;;;;;;21.42;15.32;;;1.30;99.90;;;;;;4846476;29;20050;-63
2022/12/12 06:29:13;;;;;;;21.67;15.60;;;1.30;99.90;;;;;;4845575;29;20058;-63
2022/12/12 06:31:40;;;;;;;21.98;15.85;;;1.30;99.90;;;;;;4850894;29;20098;-63
2022/12/12 06:34:07;;;;;;;21.58;15.50;;;1.20;99.90;;;;;;4853244;29;20157;-63
2022/12/12 06:36:34;;;;;;;21.73;15.90;;;1.20;99.90;;;;;;4853306;29;20061;-63
2022/12/12 06:39:01;;;;;;;22.20;15.70;;;1.30;99.90;;;;;;4845102;29;20075;-63
2022/12/12 06:41:27;;;;;;;21.45;15.52;;;1.30;99.90;;;;;;4857784;29;20042;-63
2022/12/12 06:43:54;;;;;;;19.70;15.07;;;1.30;99.90;;;;;;4860565;29;20132;-63
2022/12/12 06:46:22;;;;;;;23.25;16.92;;;1.30;99.90;;;;;;4852617;29;20557;-63
2022/12/12 06:48:48;;;;;;;24.63;16.83;;;1.30;99.90;;;;;;4854220;29;20038;-64
2022/12/12 06:51:15;;;;;;;22.05;16.25;;;1.40;99.90;;;;;;4848443;29;20158;-63
2022/12/12 06:53:42;;;;;;;21.23;15.40;;;1.40;99.90;;;;;;4846539;29;20089;-64
2022/12/12 06:56:09;;;;;;;21.67;15.32;;;1.40;99.90;;;;;;4847295;29;20088;-63
2022/12/12 06:58:35;;;;;;;23.20;16.52;;;1.40;99.90;;;;;;4848072;29;20046;-63
2022/12/12 07:01:02;;;;;;;20.23;14.73;;;1.40;99.90;;;;;;4843679;29;20045;-64
2022/12/12 07:03:29;;;;;;;21.00;15.95;;;1.40;99.90;;;;;;4844620;29;20073;-63
2022/12/12 07:05:55;;;;;;;21.77;15.65;;;1.50;99.90;;;;;;4860103;29;20393;-64
2022/12/12 07:08:22;;;;;;;21.20;14.57;;;1.50;99.90;;;;;;4845818;29;20102;-64
2022/12/12 07:10:49;;;;;;;20.63;15.18;;;1.40;99.90;;;;;;4845374;29;20054;-64
2022/12/12 07:13:16;;;;;;;21.08;15.02;;;1.50;99.90;;;;;;4847018;29;20077;-66
2022/12/12 07:15:43;;;;;;;19.27;14.02;;;1.50;99.90;;;;;;4855574;29;20045;-64
2022/12/12 07:18:09;;;;;;;19.77;14.45;;;1.50;99.90;;;;;;4855008;29;20060;-63
2022/12/12 07:20:37;;;;;;;19.17;13.82;;;1.40;99.90;;;;;;4844659;29;20046;-63
2022/12/12 07:23:04;;;;;;;16.40;13.15;;;1.50;99.90;;;;;;4849825;29;20054;-64
2022/12/12 07:25:30;;;;;;;19.23;13.10;;;1.50;99.90;;;;;;4851510;29;20038;-63
2022/12/12 07:27:57;;;;;;;13.95;10.80;;;1.40;99.90;;;;;;4848698;29;20110;-64
2022/12/12 07:30:24;;;;;;;13.55;10.65;;;1.40;99.90;;;;;;4847232;29;20049;-65
2022/12/12 07:32:50;;;;;;;15.98;11.40;;;1.40;99.90;;;;;;4847353;29;20091;-65
2022/12/12 07:35:17;;;;;;;17.25;12.75;;;1.40;99.90;;;;;;4860629;29;20062;-64
2022/12/12 07:37:44;;;;;;;17.90;13.57;;;1.40;99.90;;;;;;4846666;29;20118;-65
2022/12/12 07:40:11;;;;;;;15.80;12.27;;;1.40;99.90;;;;;;4849128;29;20054;-64
2022/12/12 07:42:38;;;;;;;14.57;11.27;;;1.40;99.90;;;;;;4848098;29;20438;-66
2022/12/12 07:45:04;;;;;;;15.38;11.88;;;1.40;99.90;;;;;;4850085;29;20137;-64
2022/12/12 07:47:31;;;;;;;14.50;11.18;;;1.30;99.90;;;;;;4855947;29;20042;-64
2022/12/12 07:49:58;;;;;;;15.77;11.75;;;1.40;99.90;;;;;;4848573;29;20050;-64
2022/12/12 07:52:24;;;;;;;13.27;10.07;;;1.40;99.90;;;;;;4846180;29;20441;-62
2022/12/12 07:54:51;;;;;;;15.15;10.75;;;1.40;99.90;;;;;;4853256;29;20077;-64
2022/12/12 07:57:18;;;;;;;14.07;9.82;;;1.40;99.90;;;;;;4861914;29;20075;-63
2022/12/12 07:59:45;;;;;;;14.02;10.68;;;1.30;99.90;;;;;;4848129;29;20506;-63
2022/12/12 08:02:11;;;;;;;14.73;11.50;;;1.40;99.90;;;;;;4853366;29;20414;-63
2022/12/12 08:04:38;;;;;;;13.50;11.10;;;1.40;99.90;;;;;;4854077;29;20045;-63
2022/12/12 08:07:05;;;;;;;13.75;10.98;;;1.40;99.90;;;;;;4861565;29;20114;-63
2022/12/12 08:09:34;;;;;;;13.57;11.00;;;1.40;99.90;;;;;;4861703;29;20073;-66
2022/12/12 08:12:01;;;;;;;14.27;10.55;;;1.40;99.90;;;;;;4857080;29;20045;-62
2022/12/12 08:14:27;;;;;;;13.07;10.02;;;1.40;99.90;;;;;;4847512;29;20117;-65
2022/12/12 08:16:55;;;;;;;17.55;12.43;;;1.40;99.90;;;;;;4853775;29;20094;-64
2022/12/12 08:19:21;;;;;;;14.07;11.15;;;1.40;99.90;;;;;;4850190;29;20042;-64
2022/12/12 08:21:48;;;;;;;13.90;10.38;;;1.40;99.90;;;;;;4844866;29;20488;-64
2022/12/12 08:24:15;;;;;;;15.02;11.57;;;1.40;99.90;;;;;;4850090;29;20076;-63
2022/12/12 08:26:41;;;;;;;16.70;10.75;;;1.40;99.90;;;;;;4857200;29;20049;-64
2022/12/12 08:29:09;;;;;;;12.88;10.27;;;1.40;99.90;;;;;;4853803;29;20053;-63
2022/12/12 08:31:35;;;;;;;13.25;9.73;;;1.40;99.90;;;;;;4843949;29;20070;-62
2022/12/12 08:34:02;;;;;;;12.52;10.27;;;1.50;99.90;;;;;;4850971;29;20739;-65
2022/12/12 08:36:29;;;;;;;13.32;10.38;;;1.50;99.90;;;;;;4849877;29;20425;-63
2022/12/12 08:38:56;;;;;;;12.30;9.52;;;1.50;99.90;;;;;;4850558;29;20054;-63
2022/12/12 08:41:23;;;;;;;14.07;10.05;;;1.50;99.90;;;;;;4853458;29;20041;-63
2022/12/12 08:43:50;;;;;;;11.82;9.27;;;1.50;99.90;;;;;;4852270;29;20062;-62
2022/12/12 08:46:17;;;;;;;12.73;9.43;;;1.50;99.90;;;;;;4857033;29;20444;-63
2022/12/12 08:48:44;;;;;;;12.55;9.65;;;1.50;99.90;;;;;;4859125;29;20106;-64
2022/12/12 08:51:11;;;;;;;14.73;10.48;;;1.40;99.90;;;;;;4844531;29;20102;-63
2022/12/12 08:53:37;;;;;;;12.80;9.80;;;1.40;99.90;;;;;;4849656;29;20398;-63
2022/12/12 08:56:04;;;;;;;12.15;9.48;;;1.50;99.90;;;;;;4850704;29;20049;-66
2022/12/12 08:58:31;;;;;;;13.15;9.85;;;1.50;99.90;;;;;;4846195;29;20106;-64
2022/12/12 09:00:57;;;;;;;11.63;8.75;;;1.50;99.90;;;;;;4858101;29;20069;-64
2022/12/12 09:03:24;;;;;;;13.45;9.45;;;1.60;99.90;;;;;;4855220;29;20053;-63
2022/12/12 09:05:55;;;;;;;10.75;8.65;;;1.60;99.90;;;;;;4855162;29;20069;-65
2022/12/12 09:08:22;;;;;;;11.93;8.85;;;1.60;99.90;;;;;;4851461;29;20049;-64
2022/12/12 09:10:49;;;;;;;11.55;8.98;;;1.60;99.90;;;;;;4852691;29;20427;-64
2022/12/12 09:13:15;;;;;;;12.52;9.20;;;1.60;99.90;;;;;;4847079;29;20046;-65
2022/12/12 09:15:42;;;;;;;11.80;8.63;;;1.60;99.90;;;;;;4847664;29;20110;-63
2022/12/12 09:18:09;;;;;;;12.05;9.15;;;1.60;99.90;;;;;;4848677;29;20084;-64
2022/12/12 09:20:36;;;;;;;12.07;9.48;;;1.60;99.90;;;;;;4861792;29;20405;-63
2022/12/12 09:23:03;;;;;;;13.55;9.75;;;1.60;99.90;;;;;;4856825;29;20517;-64
2022/12/12 09:25:30;;;;;;;12.18;8.73;;;1.60;99.90;;;;;;4850411;29;20049;-63
2022/12/12 09:27:57;;;;;;;11.95;9.25;;;1.60;99.90;;;;;;4848790;29;20038;-62
2022/12/12 09:30:24;;;;;;;12.13;8.82;;;1.60;99.90;;;;;;4850302;29;20042;-65
2022/12/12 09:32:51;;;;;;;11.98;9.45;;;1.60;99.90;;;;;;4852077;29;20034;-64
2022/12/12 09:35:17;;;;;;;11.63;8.25;;;1.60;99.90;;;;;;4847616;29;20081;-64
2022/12/12 09:37:44;;;;;;;11.85;8.65;;;1.60;99.90;;;;;;4849603;29;20080;-64
2022/12/12 09:40:11;;;;;;;11.80;8.30;;;1.70;99.90;;;;;;4853672;29;20102;-65
2022/12/12 09:42:38;;;;;;;13.40;9.98;;;1.70;99.90;;;;;;4850353;29;20069;-64
2022/12/12 09:45:04;;;;;;;11.93;9.10;;;1.70;99.90;;;;;;4848485;29;20088;-62
2022/12/12 09:47:31;;;;;;;10.90;8.65;;;1.70;99.90;;;;;;4856764;29;20045;-64
2022/12/12 09:49:58;;;;;;;13.45;9.57;;;1.70;99.90;;;;;;4853967;29;20069;-62
2022/12/12 09:52:25;;;;;;;13.30;9.63;;;1.80;99.90;;;;;;4848240;29;20045;-65
2022/12/12 09:54:56;;;;;;;13.25;9.65;;;1.80;99.90;;;;;;4846770;29;20050;-64
2022/12/12 09:57:23;;;;;;;11.75;9.23;;;1.80;99.90;;;;;;4850146;29;20042;-64
2022/12/12 09:59:50;;;;;;;11.30;9.40;;;1.80;99.90;;;;;;4846912;29;20588;-63
2022/12/12 10:02:17;;;;;;;10.65;8.95;;;1.90;99.90;;;;;;4855870;29;20045;-63
2022/12/12 10:04:44;;;;;;;11.93;9.82;;;1.90;99.90;;;;;;4854429;29;20046;-63
2022/12/12 10:07:16;;;;;;;12.93;10.40;;;1.90;99.90;;;;;;4851007;29;20081;-63
2022/12/12 10:09:43;;;;;;;10.65;8.93;;;1.90;99.90;;;;;;4848991;29;20046;-64
2022/12/12 10:12:10;;;;;;;12.18;8.40;;;2.00;99.90;;;;;;4851554;29;20045;-63
2022/12/12 10:14:36;;;;;;;11.95;9.50;;;2.00;99.90;;;;;;4849609;29;20050;-64
2022/12/12 10:17:03;;;;;;;10.98;8.10;;;2.00;99.90;;;;;;4843323;29;20121;-64
2022/12/12 10:19:30;;;;;;;11.75;9.02;;;2.00;99.90;;;;;;4850989;29;20106;-62
2022/12/12 10:21:57;;;;;;;11.38;9.35;;;2.00;99.90;;;;;;4851113;29;20038;-62
2022/12/12 10:24:23;;;;;;;10.77;8.32;;;2.00;99.90;;;;;;4853835;29;20106;-65
2022/12/12 10:26:50;;;;;;;12.55;8.63;;;2.00;99.90;;;;;;4849651;29;20045;-63
2022/12/12 10:29:17;;;;;;;10.63;8.30;;;2.00;99.90;;;;;;4854528;29;20046;-62
2022/12/12 10:31:43;;;;;;;12.95;9.10;;;2.00;99.90;;;;;;4850572;29;20113;-64
2022/12/12 10:34:10;;;;;;;11.38;9.18;;;2.00;99.90;;;;;;4850967;29;20044;-65
2022/12/12 10:36:37;;;;;;;11.20;8.95;;;2.10;99.90;;;;;;4852637;29;20382;-64
2022/12/12 10:39:04;;;;;;;11.63;9.25;;;2.10;99.90;;;;;;4849900;29;20490;-64
2022/12/12 10:41:30;;;;;;;11.45;9.63;;;2.10;99.90;;;;;;4851316;29;20120;-65
2022/12/12 10:43:57;;;;;;;12.10;9.57;;;2.10;99.90;;;;;;4852284;29;20485;-63
2022/12/12 10:46:24;;;;;;;12.20;9.23;;;2.20;99.90;;;;;;4847264;29;20050;-63
2022/12/12 10:48:51;;;;;;;11.95;9.65;;;2.20;99.90;;;;;;4844361;29;20041;-64
2022/12/12 10:51:18;;;;;;;11.48;9.07;;;2.20;99.90;;;;;;4850271;29;20601;-65
2022/12/12 10:53:45;;;;;;;12.60;9.48;;;2.20;99.90;;;;;;4850151;29;20118;-64
2022/12/12 10:56:12;;;;;;;11.60;9.63;;;2.20;99.90;;;;;;4850327;29;20498;-65
2022/12/12 10:58:38;;;;;;;12.00;9.20;;;2.20;99.90;;;;;;4855988;29;20105;-63
2022/12/12 11:01:05;;;;;;;12.07;9.45;;;2.20;99.90;;;;;;4856513;29;20502;-65
2022/12/12 11:03:32;;;;;;;12.65;9.93;;;2.20;99.90;;;;;;4851732;29;20044;-64
2022/12/12 11:05:59;;;;;;;13.68;10.73;;;2.10;99.90;;;;;;4848743;29;20042;-62
2022/12/12 11:08:26;;;;;;;12.80;10.75;;;2.10;99.90;;;;;;4849336;29;20455;-61
2022/12/12 11:10:53;;;;;;;15.30;11.18;;;2.20;99.90;;;;;;4857596;29;20452;-62
2022/12/12 11:13:19;;;;;;;13.25;10.70;;;2.20;99.90;;;;;;4851691;29;20042;-62
2022/12/12 11:15:46;;;;;;;13.10;11.07;;;2.20;99.90;;;;;;4851834;29;20072;-61
2022/12/12 11:18:13;;;;;;;13.00;10.57;;;2.20;99.90;;;;;;4865841;29;20038;-63
2022/12/12 11:20:40;;;;;;;14.23;11.60;;;2.20;99.90;;;;;;4844861;29;20054;-64
2022/12/12 11:23:07;;;;;;;11.93;10.60;;;2.20;99.90;;;;;;4854522;29;20049;-61
2022/12/12 11:25:33;;;;;;;14.10;11.65;;;2.30;99.90;;;;;;4857199;29;20359;-62
2022/12/12 11:28:00;;;;;;;15.85;11.88;;;2.30;99.90;;;;;;4850387;29;20065;-62
2022/12/12 11:30:32;;;;;;;15.05;12.25;;;2.30;99.90;;;;;;4851680;29;20046;-62
2022/12/12 11:32:59;;;;;;;15.02;12.65;;;2.40;99.90;;;;;;4853397;29;20124;-63
2022/12/12 11:35:25;;;;;;;14.45;12.02;;;2.40;99.90;;;;;;4858576;29;20442;-64
2022/12/12 11:37:52;;;;;;;14.27;11.70;;;2.50;99.90;;;;;;4858993;29;20093;-64
2022/12/12 11:40:19;;;;;;;14.98;12.15;;;2.40;99.90;;;;;;4859738;29;20088;-63
2022/12/12 11:42:46;;;;;;;15.25;12.82;;;2.40;99.90;;;;;;4854361;29;20046;-62
2022/12/12 11:45:12;;;;;;;14.48;12.05;;;2.40;99.90;;;;;;4854453;29;20049;-63
2022/12/12 11:47:40;;;;;;;15.25;13.15;;;2.40;99.90;;;;;;4850680;29;20061;-65
2022/12/12 11:50:06;;;;;;;15.07;12.65;;;2.40;99.90;;;;;;4851341;29;20048;-62
2022/12/12 11:52:36;;;;;;;15.85;12.48;;;2.50;99.90;;;;;;4857072;29;20051;-64
2022/12/12 11:55:03;;;;;;;16.23;12.70;;;2.50;99.90;;;;;;4855726;29;20089;-65
2022/12/12 11:57:30;;;;;;;17.10;12.98;;;2.40;99.90;;;;;;4853148;29;20059;-64
2022/12/12 11:59:57;;;;;;;14.32;12.05;;;2.40;99.90;;;;;;4852423;29;20450;-64
2022/12/12 12:02:24;;;;;;;15.00;12.98;;;2.40;99.90;;;;;;4854746;29;20042;-63
2022/12/12 12:04:51;;;;;;;15.65;12.82;;;2.50;99.90;;;;;;4850505;29;20042;-63
2022/12/12 12:07:19;;;;;;;16.15;13.60;;;2.40;99.90;;;;;;4857089;29;20040;-64
2022/12/12 12:09:46;;;;;;;14.98;13.15;;;2.40;99.90;;;;;;4848265;29;20120;-64
2022/12/12 12:12:12;;;;;;;22.58;18.48;;;2.50;99.90;;;;;;4853964;29;20371;-64
2022/12/12 12:14:39;;;;;;;16.02;14.30;;;2.40;99.90;;;;;;4850301;29;20045;-66
2022/12/12 12:17:06;;;;;;;15.98;13.13;;;2.40;99.90;;;;;;4855191;29;20050;-65
2022/12/12 12:19:33;;;;;;;16.75;14.05;;;2.40;99.90;;;;;;4852583;29;20042;-64
2022/12/12 12:21:59;;;;;;;18.92;14.93;;;2.40;99.90;;;;;;4847490;29;20042;-63
2022/12/12 12:24:27;;;;;;;17.02;13.75;;;2.40;99.90;;;;;;4854742;29;20101;-64
2022/12/12 12:26:53;;;;;;;18.08;14.02;;;2.50;99.90;;;;;;4853202;29;20049;-63
2022/12/12 12:29:20;;;;;;;17.15;13.43;;;2.50;99.90;;;;;;4855674;29;20160;-63
2022/12/12 12:31:47;;;;;;;18.65;13.77;;;2.60;99.90;;;;;;4851396;29;20150;-62
2022/12/12 12:34:13;;;;;;;17.75;13.88;;;2.60;99.90;;;;;;4850982;29;20042;-63
2022/12/12 12:36:41;;;;;;;17.73;13.82;;;2.70;99.90;;;;;;4857311;29;20034;-63
2022/12/12 12:39:07;;;;;;;17.63;13.40;;;2.70;99.90;;;;;;4845794;29;20102;-63
2022/12/12 12:41:34;;;;;;;17.65;13.50;;;2.70;99.90;;;;;;4856402;29;20078;-63
2022/12/12 12:44:01;;;;;;;20.17;15.63;;;2.70;99.90;;;;;;4849525;29;20443;-63
2022/12/12 12:46:27;;;;;;;18.27;15.32;;;2.70;99.90;;;;;;4851797;29;20110;-64
2022/12/12 12:48:54;;;;;;;19.52;15.73;;;2.70;99.90;;;;;;4854068;29;20053;-64
2022/12/12 12:51:21;;;;;;;17.08;14.40;;;2.70;99.90;;;;;;4849125;29;20098;-62